EDT,Max TemperatureF,Mean TemperatureF,Min TemperatureF,Max Dew PointF,MeanDew PointF,Min DewpointF,Max Humidity, Mean Humidity, Min Humidity, Max Sea Level PressureIn, Mean Sea Level PressureIn, Min Sea Level PressureIn, Max VisibilityMiles, Mean VisibilityMiles, Min VisibilityMiles, Max Wind SpeedMPH, Mean Wind SpeedMPH, Max Gust SpeedMPH,PrecipitationIn, CloudCover, Events, WindDirDegrees
2013-9-1,75,68,61,67,63,60,94,85,70,30.04,30.00,29.95,10,7,0,21,2,40,1.40,4,Fog-Rain,278
2013-9-2,77,70,64,64,61,58,92,72,52,30.06,30.01,29.97,10,10,2,16,6,23,0.00,4,,277
2013-9-3,76,68,61,63,58,53,91,69,46,30.13,30.03,29.97,10,10,5,14,7,20,0.00,2,Rain,321
2013-9-4,77,66,54,58,51,37,92,62,23,30.24,30.18,30.11,10,10,7,9,1,,0.00,0,,293
2013-9-5,78,66,53,57,50,34,93,60,22,30.27,30.23,30.20,10,10,7,8,2,,0.00,0,,321
2013-9-6,72,64,55,59,56,53,93,76,56,30.30,30.25,30.21,10,10,5,8,2,,0.00,2,,111
2013-9-7,77,66,54,59,55,48,95,71,35,30.24,30.18,30.12,10,8,0,16,2,21,0.00,3,Fog,279
2013-9-8,76,70,64,61,58,55,81,68,50,30.15,30.11,30.09,10,10,10,14,5,,0.00,3,,320
2013-9-9,75,66,58,64,61,57,94,81,62,30.29,30.23,30.16,10,8,0,7,1,,0.00,3,Fog,138
2013-9-10,78,68,59,65,62,57,95,80,51,30.37,30.33,30.29,10,7,0,6,0,,0.00,3,Fog-Rain,124
2013-9-11,78,70,61,66,62,59,94,79,54,30.35,30.30,30.22,10,8,0,8,2,17,0.60,5,Fog-Rain,314
2013-9-12,78,70,63,64,61,56,94,72,50,30.22,30.11,29.99,10,9,2,21,7,31,0.06,4,Rain,288
2013-9-13,68,60,51,57,49,41,81,63,38,30.04,29.97,29.92,10,10,10,24,12,31,0.07,4,Rain,318
2013-9-14,66,55,44,52,45,40,92,71,49,30.20,30.11,30.02,10,10,10,9,4,,0.00,2,,26
2013-9-15,68,58,49,55,52,48,94,79,60,30.29,30.24,30.20,10,9,1,8,2,,0.00,4,,140
2013-9-16,70,63,56,55,53,51,92,70,51,30.30,30.23,30.21,10,10,7,16,4,20,0.00,4,Rain,308
2013-9-17,59,55,51,52,48,46,89,77,66,30.39,30.34,30.30,10,10,10,7,2,,0.00,7,,112
2013-9-18,61,55,49,54,50,46,94,85,69,30.35,30.30,30.24,10,9,4,5,1,,0.00,8,Rain,140
2013-9-19,66,60,55,60,57,54,96,89,78,30.26,30.22,30.19,10,6,1,13,3,18,0.00,7,Rain,274
2013-9-20,75,67,59,63,59,56,94,78,51,30.19,30.12,30.05,10,8,0,16,4,23,0.00,6,Fog-Rain,267
2013-9-21,64,60,55,62,59,53,96,92,85,30.05,29.90,29.82,10,6,0,13,2,20,0.38,7,Fog-Rain,138
2013-9-22,65,58,50,52,47,45,93,70,53,30.02,29.93,29.85,10,10,10,10,6,16,0.00,3,,343
2013-9-23,65,54,44,53,49,42,95,81,59,30.13,30.08,30.01,10,9,0,6,2,,0.00,4,Fog,134
2013-9-24,70,58,45,58,51,45,96,84,53,30.15,30.09,30.03,10,6,0,7,1,,0.00,5,Fog,126
2013-9-25,60,55,50,58,53,49,96,95,88,30.03,29.99,29.95,10,2,0,7,0,,0.04,7,Fog-Rain,133
2013-9-26,67,60,52,54,50,42,96,76,40,30.14,30.05,29.97,10,7,0,9,1,,0.00,4,Fog,54
2013-9-27,68,56,45,53,49,44,96,77,46,30.26,30.20,30.14,10,8,0,6,1,,0.00,4,Fog,83
2013-9-28,63,58,52,51,50,46,94,80,56,30.32,30.27,30.24,10,10,7,7,1,,0.00,8,,110
2013-9-29,66,58,50,54,50,45,93,80,53,30.24,30.17,30.11,10,10,10,7,1,,0.00,7,,65
2013-9-30,63,58,53,56,52,50,95,82,61,30.16,30.13,30.09,10,10,0,6,0,,0.00,6,Fog,212